| time (UTC) | temp F | wind direction | speed knots | gust knots | rain 1hr in | rain 24hr in | rain mn in | humidity % | barometer mb |
| 20260509125635 | 50 | 138 | 0.0 | 0.9 | 0.00 | 0.03 | 0.03 | 91 | 1009.4 |
| 20260509125131 | 50 | 135 | 0.9 | 1.7 | 0.00 | 0.03 | 0.03 | 91 | 1009.7 |
| 20260509124628 | 50 | 125 | 0.0 | 0.9 | 0.00 | 0.03 | 0.03 | 91 | 1009.3 |
| 20260509124125 | 50 | 161 | 0.9 | 2.6 | 0.00 | 0.03 | 0.03 | 90 | 1009.7 |
| 20260509123623 | 50 | 121 | 0.0 | 0.0 | 0.05 | 0.03 | 0.03 | 91 | 1009.4 |
| 20260509123119 | 50 | 117 | 0.0 | 1.7 | 0.05 | 0.03 | 0.03 | 91 | 1009.6 |
| 20260509122615 | 50 | 170 | 0.9 | 0.9 | 0.00 | 0.02 | 0.02 | 90 | 1009.6 |
| 20260509122113 | 49 | 116 | 0.0 | 0.0 | 0.00 | 0.02 | 0.02 | 91 | 1009.6 |
| 20260509121609 | 49 | 204 | 0.9 | 1.7 | 0.00 | 0.02 | 0.02 | 91 | 1009.6 |
| 20260509121107 | 49 | 118 | 0.0 | 0.9 | 0.00 | 0.02 | 0.02 | 92 | 1009.8 |
| 20260509120605 | 49 | 129 | 0.0 | 0.9 | 0.00 | 0.02 | 0.02 | 92 | 1009.9 |
| 20260509115559 | 48 | 134 | 0.0 | 0.9 | 0.00 | 0.02 | 0.02 | 94 | 1009.8 |
| 20260509115057 | 48 | 232 | 2.6 | 2.6 | 0.00 | 0.02 | 0.02 | 95 | 1010.1 |
| 20260509114555 | 48 | 139 | 0.0 | 0.0 | 0.00 | 0.02 | 0.02 | 96 | 1010.2 |
| 20260509114054 | 48 | 123 | 0.0 | 0.0 | 0.07 | 0.02 | 0.02 | 96 | 1010.2 |
| 20260509113552 | 47 | 123 | 0.0 | 0.0 | 0.07 | 0.02 | 0.02 | 96 | 1010.2 |
| 20260509113049 | 47 | 119 | 0.0 | 0.0 | 0.00 | 0.01 | 0.01 | 96 | 1010.1 |
| 20260509112545 | 47 | 122 | 0.0 | 0.9 | 0.00 | 0.01 | 0.01 | 96 | 1010.3 |
| 20260509112042 | 47 | 123 | 0.0 | 0.0 | 0.00 | 0.01 | 0.01 | 96 | 1010.2 |
| 20260509111540 | 47 | 162 | 0.0 | 0.9 | 0.00 | 0.01 | 0.01 | 96 | 1010.2 |
| 20260509111037 | 47 | 132 | 0.0 | 0.9 | 0.00 | 0.01 | 0.01 | 96 | 1010.2 |
| 20260509110533 | 47 | 114 | 0.0 | 0.9 | 0.00 | 0.01 | 0.01 | 96 | 1010.3 |
| 20260509110031 | 47 | 129 | 0.0 | 1.7 | 0.00 | 0.01 | 0.01 | 96 | 1010.3 |
| 20260509105529 | 47 | 122 | 0.0 | 0.0 | 0.00 | 0.01 | 0.01 | 96 | 1010.2 |
| 20260509105026 | 47 | 133 | 0.0 | 0.9 | 0.00 | 0.01 | 0.01 | 96 | 1010.1 |
| 20260509104523 | 47 | 129 | 0.0 | 0.9 | 0.00 | 0.01 | 0.01 | 96 | 1010.0 |
| 20260509104020 | 47 | 162 | 0.0 | 0.9 | 0.00 | 0.01 | 0.01 | 96 | 1009.9 |
| 20260509103518 | 47 | 124 | 0.9 | 1.7 | 0.00 | 0.01 | 0.01 | 96 | 1010.1 |
| 20260509103016 | 47 | 124 | 0.0 | 0.0 | 0.00 | 0.01 | 0.01 | 96 | 1010.0 |
| 20260509102513 | 47 | 141 | 0.0 | 0.9 | 0.00 | 0.01 | 0.01 | 96 | 1009.9 |
| 20260509102009 | 47 | 121 | 0.0 | 0.0 | 0.05 | 0.01 | 0.01 | 96 | 1010.0 |
| 20260509101506 | 47 | 123 | 0.0 | 0.0 | 0.00 | 0.00 | 0.00 | 96 | 1009.8 |
| 20260509101003 | 47 | 111 | 0.0 | 0.0 | 0.00 | 0.00 | 0.00 | 96 | 1009.9 |
| 20260509100500 | 47 | 112 | 0.0 | 0.0 | 0.00 | 0.00 | 0.00 | 95 | 1009.6 |
| 20260509095956 | 47 | 121 | 0.0 | 0.0 | 0.00 | 0.00 | 0.00 | 95 | 1009.9 |
| 20260509095453 | 47 | 123 | 0.0 | 0.9 | 0.00 | 0.00 | 0.00 | 95 | 1009.8 |
| 20260509094951 | 47 | 112 | 0.0 | 0.0 | 0.00 | 0.00 | 0.00 | 95 | 1009.6 |
| 20260509094447 | 47 | 111 | 0.0 | 0.0 | 0.00 | 0.00 | 0.00 | 95 | 1009.4 |
| 20260509093944 | 47 | 102 | 0.0 | 0.0 | 0.00 | 0.00 | 0.00 | 95 | 1009.7 |
| 20260509093442 | 47 | 110 | 0.0 | 0.0 | 0.00 | 0.00 | 0.00 | 95 | 1009.7 |
| 20260509092940 | 47 | 118 | 0.0 | 0.0 | 0.00 | 0.00 | 0.00 | 94 | 1009.8 |
| 20260509092437 | 47 | 118 | 0.0 | 0.0 | 0.00 | 0.00 | 0.00 | 94 | 1009.8 |
| 20260509091936 | 47 | 122 | 0.0 | 0.9 | 0.00 | 0.00 | 0.00 | 94 | 1009.8 |
| 20260509091432 | 47 | 110 | 0.0 | 0.9 | 0.00 | 0.00 | 0.00 | 94 | 1009.9 |
| 20260509090930 | 47 | 136 | 0.9 | 0.9 | 0.00 | 0.00 | 0.00 | 94 | 1009.9 |
| 20260509090427 | 47 | 121 | 0.0 | 0.0 | 0.00 | 0.00 | 0.00 | 93 | 1009.8 |
| 20260509085925 | 47 | 113 | 0.0 | 0.0 | 0.00 | 0.00 | 0.00 | 93 | 1009.6 |
| 20260509085421 | 47 | 120 | 0.0 | 0.0 | 0.00 | 0.00 | 0.00 | 93 | 1009.7 |
| 20260509084917 | 48 | 114 | 0.0 | 0.0 | 0.00 | 0.00 | 0.00 | 92 | 1009.4 |
| 20260509084414 | 48 | 116 | 0.0 | 0.0 | 0.00 | 0.00 | 0.00 | 92 | 1009.7 |
| 20260509083912 | 48 | 116 | 0.0 | 0.9 | 0.00 | 0.00 | 0.00 | 92 | 1009.6 |
| 20260509083409 | 48 | 107 | 0.0 | 0.0 | 0.00 | 0.00 | 0.00 | 92 | 1009.7 |
| 20260509082905 | 48 | 106 | 0.0 | 0.0 | 0.00 | 0.00 | 0.00 | 92 | 1009.7 |
| 20260509082403 | 48 | 81 | 1.7 | 2.6 | 0.00 | 0.00 | 0.00 | 92 | 1009.4 |
| 20260509081859 | 48 | 100 | 0.9 | 1.7 | 0.00 | 0.00 | 0.00 | 92 | 1009.6 |
| 20260509081356 | 48 | 108 | 0.0 | 0.9 | 0.00 | 0.00 | 0.00 | 92 | 1009.7 |
| 20260509080854 | 47 | 100 | 0.0 | 0.0 | 0.00 | 0.00 | 0.00 | 93 | 1009.9 |
| 20260509080352 | 47 | 116 | 0.0 | 0.0 | 0.00 | 0.00 | 0.00 | 93 | 1009.8 |
| 20260509075850 | 47 | 115 | 0.0 | 0.0 | 0.00 | 0.00 | 0.00 | 93 | 1009.7 |
| 20260509075347 | 47 | 116 | 0.0 | 0.0 | 0.00 | 0.00 | 0.00 | 94 | 1009.9 |
| 20260509074844 | 47 | 116 | 0.0 | 0.0 | 0.00 | 0.00 | 0.00 | 94 | 1009.8 |
| 20260509074342 | 47 | 116 | 0.0 | 0.0 | 0.00 | 0.00 | 0.00 | 94 | 1009.7 |
| 20260509073838 | 47 | 110 | 0.0 | 0.0 | 0.00 | 0.00 | 0.00 | 94 | 1009.8 |
| 20260509073334 | 47 | 110 | 0.0 | 0.0 | 0.00 | 0.00 | 0.00 | 94 | 1009.7 |
| 20260509072831 | 47 | 118 | 0.0 | 0.0 | 0.00 | 0.00 | 0.00 | 94 | 1009.7 |
| 20260509072327 | 47 | 120 | 0.0 | 0.0 | 0.00 | 0.00 | 0.00 | 94 | 1009.9 |
| 20260509071824 | 47 | 116 | 0.0 | 0.0 | 0.00 | 0.00 | 0.00 | 94 | 1009.8 |
| 20260509071321 | 48 | 111 | 0.0 | 0.0 | 0.00 | 0.00 | 0.00 | 94 | 1009.9 |
| 20260509070819 | 48 | 119 | 0.0 | 0.0 | 0.00 | 0.00 | 0.00 | 94 | 1009.8 |
| 20260509070315 | 47 | 103 | 0.9 | 0.9 | 0.00 | 0.00 | 0.00 | 94 | 1009.8 |
| 20260509065811 | 47 | 99 | 0.9 | 0.9 | 0.00 | 0.00 | 0.00 | 94 | 1009.9 |
| 20260509065308 | 48 | 109 | 0.0 | 0.9 | 0.00 | 0.00 | 0.00 | 94 | 1010.2 |
| 20260509064804 | 48 | 120 | 0.0 | 0.0 | 0.00 | 0.00 | 0.00 | 94 | 1010.3 |
| 20260509064301 | 48 | 120 | 0.0 | 0.0 | 0.00 | 0.00 | 0.00 | 94 | 1010.5 |
| 20260509063759 | 48 | 120 | 0.0 | 0.0 | 0.00 | 0.00 | 0.00 | 94 | 1010.3 |
| 20260509063255 | 48 | 114 | 0.0 | 0.0 | 0.00 | 0.00 | 0.00 | 93 | 1010.4 |
| 20260509062752 | 48 | 114 | 0.0 | 0.0 | 0.00 | 0.00 | 0.00 | 93 | 1010.7 |
| 20260509062249 | 48 | 111 | 0.0 | 0.0 | 0.00 | 0.00 | 0.00 | 93 | 1010.8 |
| 20260509061746 | 48 | 110 | 0.0 | 0.0 | 0.00 | 0.00 | 0.00 | 93 | 1010.7 |
| 20260509061244 | 48 | 104 | 0.0 | 0.9 | 0.00 | 0.00 | 0.00 | 92 | 1010.8 |
| 20260509060741 | 48 | 111 | 0.0 | 0.0 | 0.00 | 0.00 | 0.00 | 92 | 1010.8 |
| 20260509060237 | 48 | 105 | 0.0 | 0.9 | 0.00 | 0.00 | 0.00 | 91 | 1010.9 |
| 20260509055733 | 48 | 130 | 0.0 | 0.0 | 0.00 | 0.00 | 0.00 | 91 | 1010.9 |
| 20260509055229 | 48 | 112 | 0.0 | 0.0 | 0.00 | 0.00 | 0.00 | 91 | 1011.0 |
| 20260509054726 | 48 | 117 | 0.0 | 0.0 | 0.00 | 0.00 | 0.00 | 91 | 1011.0 |
| 20260509054223 | 48 | 117 | 0.0 | 0.0 | 0.00 | 0.00 | 0.00 | 91 | 1010.8 |
| 20260509053722 | 48 | 116 | 0.0 | 0.0 | 0.00 | 0.00 | 0.00 | 90 | 1011.1 |
| 20260509053218 | 48 | 110 | 0.0 | 0.0 | 0.00 | 0.00 | 0.00 | 90 | 1011.0 |
| 20260509052716 | 48 | 112 | 0.0 | 0.0 | 0.00 | 0.00 | 0.00 | 90 | 1011.1 |
| 20260509052213 | 48 | 114 | 0.0 | 0.0 | 0.00 | 0.00 | 0.00 | 90 | 1011.3 |
| 20260509051711 | 48 | 103 | 0.9 | 0.9 | 0.00 | 0.00 | 0.00 | 91 | 1011.5 |
| 20260509051208 | 48 | 122 | 0.0 | 0.0 | 0.00 | 0.00 | 0.00 | 91 | 1011.8 |
| 20260509050705 | 48 | 122 | 0.0 | 0.0 | 0.00 | 0.00 | 0.00 | 90 | 1011.9 |
| 20260509050202 | 48 | 122 | 0.0 | 0.0 | 0.00 | 0.00 | 0.00 | 91 | 1011.9 |
| 20260509045659 | 48 | 122 | 0.0 | 0.0 | 0.00 | 0.00 | 0.00 | 91 | 1011.8 |
| 20260509045156 | 48 | 122 | 0.0 | 0.0 | 0.00 | 0.00 | 0.00 | 91 | 1011.8 |
| 20260509044653 | 49 | 123 | 0.0 | 0.0 | 0.00 | 0.00 | 0.00 | 91 | 1011.8 |
| 20260509044150 | 49 | 121 | 0.0 | 0.0 | 0.00 | 0.00 | 0.00 | 91 | 1011.7 |
| 20260509043647 | 49 | 124 | 0.0 | 0.0 | 0.00 | 0.00 | 0.00 | 92 | 1011.7 |
| 20260509043142 | 49 | 122 | 0.0 | 0.0 | 0.00 | 0.00 | 0.00 | 92 | 1011.6 |
| 20260509042639 | 49 | 122 | 0.0 | 0.0 | 0.00 | 0.00 | 0.00 | 92 | 1011.6 |
| 20260509042135 | 49 | 122 | 0.0 | 0.0 | 0.00 | 0.00 | 0.00 | 91 | 1011.6 |
| 20260509041632 | 49 | 122 | 0.0 | 0.0 | 0.00 | 0.00 | 0.00 | 92 | 1011.6 |
| 20260509041129 | 49 | 122 | 0.0 | 0.0 | 0.00 | 0.00 | 0.00 | 91 | 1011.7 |
| 20260509040628 | 49 | 125 | 0.0 | 0.9 | 0.00 | 0.00 | 0.00 | 91 | 1011.7 |
| 20260509040125 | 49 | 117 | 0.0 | 0.0 | 0.00 | 0.00 | 0.00 | 90 | 1011.9 |
| 20260509035621 | 49 | 117 | 0.0 | 0.0 | 0.00 | 0.02 | 0.02 | 89 | 1011.6 |
| 20260509035118 | 49 | 122 | 0.0 | 0.0 | 0.00 | 0.02 | 0.02 | 89 | 1011.7 |
| 20260509034616 | 49 | 124 | 0.0 | 0.0 | 0.00 | 0.02 | 0.02 | 89 | 1011.8 |
| 20260509034113 | 49 | 127 | 0.0 | 0.0 | 0.00 | 0.02 | 0.02 | 89 | 1012.0 |
| 20260509033610 | 49 | 126 | 0.0 | 0.9 | 0.00 | 0.02 | 0.02 | 88 | 1012.0 |
| 20260509033107 | 49 | 118 | 0.0 | 0.0 | 0.00 | 0.02 | 0.02 | 87 | 1011.7 |
| 20260509032604 | 50 | 118 | 0.0 | 0.0 | 0.00 | 0.02 | 0.02 | 87 | 1011.9 |
| 20260509032100 | 49 | 117 | 0.0 | 0.0 | 0.00 | 0.02 | 0.02 | 87 | 1011.6 |
| 20260509031559 | 49 | 117 | 0.0 | 0.0 | 0.00 | 0.02 | 0.02 | 86 | 1011.4 |
| 20260509031055 | 50 | 117 | 0.0 | 0.0 | 0.00 | 0.02 | 0.02 | 85 | 1011.7 |
| 20260509030554 | 50 | 114 | 0.0 | 0.0 | 0.00 | 0.02 | 0.02 | 85 | 1011.6 |
| 20260509030050 | 50 | 106 | 0.0 | 0.9 | 0.00 | 0.02 | 0.02 | 85 | 1011.5 |
| 20260509025546 | 50 | 112 | 0.0 | 0.0 | 0.00 | 0.02 | 0.02 | 85 | 1011.6 |
| 20260509025042 | 50 | 113 | 0.0 | 0.0 | 0.00 | 0.02 | 0.02 | 85 | 1011.7 |
| 20260509024538 | 49 | 115 | 0.0 | 0.0 | 0.00 | 0.02 | 0.02 | 86 | 1011.8 |
| 20260509024034 | 50 | 121 | 0.0 | 0.0 | 0.00 | 0.02 | 0.02 | 86 | 1011.9 |
| 20260509023532 | 49 | 121 | 0.0 | 0.0 | 0.00 | 0.02 | 0.02 | 85 | 1011.9 |
| 20260509023029 | 49 | 119 | 0.0 | 0.0 | 0.00 | 0.02 | 0.02 | 84 | 1011.8 |
| 20260509022525 | 50 | 121 | 0.0 | 0.0 | 0.00 | 0.02 | 0.02 | 84 | 1011.8 |
| 20260509022023 | 50 | 121 | 0.0 | 0.0 | 0.00 | 0.02 | 0.02 | 84 | 1012.0 |
| 20260509021520 | 50 | 117 | 0.0 | 0.0 | 0.00 | 0.02 | 0.02 | 83 | 1011.8 |
| 20260509021017 | 50 | 122 | 0.0 | 0.0 | 0.00 | 0.02 | 0.02 | 82 | 1011.8 |
| 20260509020515 | 50 | 121 | 0.0 | 0.0 | 0.00 | 0.02 | 0.02 | 82 | 1011.7 |
| 20260509020012 | 51 | 122 | 0.0 | 0.0 | 0.00 | 0.02 | 0.02 | 81 | 1011.7 |
| 20260509015511 | 51 | 122 | 0.0 | 0.0 | 0.00 | 0.02 | 0.02 | 80 | 1011.6 |
| 20260509015008 | 51 | 119 | 0.0 | 0.0 | 0.00 | 0.02 | 0.02 | 80 | 1011.2 |
| 20260509014504 | 52 | 110 | 0.0 | 0.0 | 0.00 | 0.02 | 0.02 | 79 | 1011.3 |
| 20260509014001 | 52 | 121 | 0.0 | 0.9 | 0.00 | 0.02 | 0.02 | 76 | 1011.8 |
| 20260509013458 | 52 | 122 | 0.0 | 0.9 | 0.00 | 0.02 | 0.02 | 76 | 1011.8 |
| 20260509012953 | 52 | 121 | 0.0 | 0.9 | 0.00 | 0.02 | 0.02 | 75 | 1011.8 |
| 20260509012450 | 53 | 139 | 0.0 | 0.9 | 0.00 | 0.02 | 0.02 | 74 | 1012.0 |
| 20260509011947 | 53 | 138 | 0.9 | 1.7 | 0.00 | 0.02 | 0.02 | 71 | 1011.5 |
| 20260509011444 | 53 | 128 | 0.0 | 0.9 | 0.00 | 0.02 | 0.02 | 71 | 1011.7 |
| 20260509010942 | 53 | 135 | 0.0 | 0.9 | 0.00 | 0.02 | 0.02 | 71 | 1011.5 |
| 20260509010440 | 53 | 129 | 0.0 | 0.0 | 0.00 | 0.02 | 0.02 | 70 | 1011.3 |
| 20260509005936 | 54 | 139 | 0.9 | 0.9 | 0.00 | 0.02 | 0.02 | 69 | 1011.1 |
| 20260509005434 | 53 | 148 | 0.0 | 0.9 | 0.00 | 0.02 | 0.02 | 69 | 1011.0 |
| 20260509004934 | 53 | 122 | 0.0 | 0.0 | 0.00 | 0.02 | 0.02 | 70 | 1010.9 |
| 20260509004431 | 54 | 128 | 0.0 | 0.9 | 0.00 | 0.02 | 0.02 | 70 | 1011.1 |
| 20260509003929 | 54 | 129 | 0.0 | 0.9 | 0.00 | 0.02 | 0.02 | 68 | 1011.0 |
| 20260509003427 | 54 | 165 | 0.0 | 0.0 | 0.00 | 0.02 | 0.02 | 67 | 1010.9 |
| 20260509002923 | 54 | 139 | 0.9 | 1.7 | 0.00 | 0.02 | 0.02 | 67 | 1011.0 |
| 20260509002421 | 55 | 141 | 0.9 | 0.9 | 0.00 | 0.02 | 0.02 | 66 | 1011.3 |
| 20260509001913 | 55 | 160 | 1.7 | 1.7 | 0.00 | 0.02 | 0.02 | 66 | 1011.2 |
| 20260509001409 | 55 | 169 | 0.9 | 1.7 | 0.00 | 0.02 | 0.02 | 66 | 1011.1 |
| 20260509000906 | 55 | 191 | 0.9 | 2.6 | 0.00 | 0.02 | 0.02 | 65 | 1010.9 |
| 20260509000404 | 55 | 164 | 1.7 | 6.1 | 0.00 | 0.02 | 0.02 | 66 | 1011.1 |
| 20260508235900 | 55 | 234 | 1.7 | 5.2 | 0.00 | 0.02 | 0.02 | 66 | 1011.2 |
| 20260508235357 | 55 | 289 | 1.7 | 2.6 | 0.00 | 0.02 | 0.02 | 65 | 1011.0 |
| 20260508234854 | 55 | 273 | 4.3 | 7.0 | 0.00 | 0.02 | 0.02 | 65 | 1010.9 |
| 20260508234350 | 55 | 161 | 0.9 | 6.1 | 0.00 | 0.02 | 0.02 | 65 | 1010.8 |
| 20260508233849 | 55 | 115 | 3.5 | 6.1 | 0.00 | 0.02 | 0.02 | 64 | 1010.8 |
| 20260508233348 | 55 | 200 | 2.6 | 3.5 | 0.00 | 0.02 | 0.02 | 66 | 1010.9 |
| 20260508232845 | 55 | 310 | 4.3 | 6.1 | 0.00 | 0.02 | 0.02 | 65 | 1010.8 |
| 20260508232341 | 55 | 203 | 3.5 | 7.8 | 0.00 | 0.02 | 0.02 | 65 | 1010.8 |
| 20260508231839 | 56 | 305 | 5.2 | 7.8 | 0.00 | 0.02 | 0.02 | 66 | 1010.9 |
| 20260508231335 | 56 | 231 | 5.2 | 6.1 | 0.00 | 0.02 | 0.02 | 67 | 1010.9 |
| 20260508230832 | 56 | 265 | 2.6 | 5.2 | 0.00 | 0.02 | 0.02 | 67 | 1010.5 |
| 20260508230328 | 56 | 227 | 1.7 | 5.2 | 0.00 | 0.02 | 0.02 | 68 | 1010.5 |
| 20260508225827 | 56 | 242 | 4.3 | 7.0 | 0.00 | 0.02 | 0.02 | 67 | 1010.4 |
| 20260508225323 | 56 | 306 | 2.6 | 3.5 | 0.00 | 0.02 | 0.02 | 67 | 1010.5 |
| 20260508224821 | 56 | 243 | 2.6 | 5.2 | 0.00 | 0.02 | 0.02 | 66 | 1010.4 |
| 20260508224318 | 57 | 245 | 0.9 | 7.0 | 0.00 | 0.02 | 0.02 | 67 | 1010.5 |
| 20260508223816 | 58 | 253 | 3.5 | 5.2 | 0.00 | 0.02 | 0.02 | 64 | 1010.3 |
| 20260508223313 | 57 | 287 | 5.2 | 7.0 | 0.00 | 0.02 | 0.02 | 66 | 1010.5 |
| 20260508222810 | 57 | 282 | 3.5 | 3.5 | 0.00 | 0.02 | 0.02 | 67 | 1010.4 |
| 20260508222307 | 59 | 252 | 1.7 | 2.6 | 0.00 | 0.02 | 0.02 | 65 | 1010.5 |
| 20260508221804 | 58 | 141 | 0.9 | 0.9 | 0.00 | 0.02 | 0.02 | 70 | 1010.5 |
| 20260508221259 | 58 | 106 | 1.7 | 3.5 | 0.00 | 0.02 | 0.02 | 66 | 1010.8 |
| 20260508220755 | 58 | 130 | 0.9 | 1.7 | 0.00 | 0.02 | 0.02 | 71 | 1010.7 |
| 20260508220252 | 58 | 158 | 0.9 | 1.7 | 0.00 | 0.02 | 0.02 | 69 | 1010.8 |
| 20260508215749 | 57 | 125 | 0.0 | 1.7 | 0.00 | 0.02 | 0.02 | 72 | 1010.7 |
| 20260508215245 | 54 | 137 | 0.9 | 0.9 | 0.00 | 0.02 | 0.02 | 75 | 1010.9 |
| 20260508214742 | 54 | 129 | 0.9 | 0.9 | 0.00 | 0.02 | 0.02 | 76 | 1010.9 |
| 20260508214234 | 54 | 141 | 0.9 | 1.7 | 0.00 | 0.02 | 0.02 | 75 | 1010.8 |
| 20260508213731 | 54 | 213 | 2.6 | 3.5 | 0.00 | 0.02 | 0.02 | 75 | 1010.9 |
| 20260508213227 | 54 | 137 | 0.9 | 1.7 | 0.00 | 0.02 | 0.02 | 76 | 1010.7 |
| 20260508212724 | 53 | 152 | 0.9 | 0.9 | 0.00 | 0.02 | 0.02 | 75 | 1010.7 |
| 20260508212220 | 53 | 216 | 1.7 | 3.5 | 0.00 | 0.02 | 0.02 | 75 | 1010.7 |
| 20260508211716 | 53 | 156 | 0.9 | 1.7 | 0.00 | 0.02 | 0.02 | 77 | 1010.8 |
| 20260508211212 | 53 | 143 | 0.0 | 1.7 | 0.00 | 0.02 | 0.02 | 78 | 1010.8 |
| 20260508210709 | 52 | 178 | 1.7 | 1.7 | 0.00 | 0.02 | 0.02 | 79 | 1010.8 |
| 20260508210206 | 52 | 90 | 0.9 | 1.7 | 0.00 | 0.02 | 0.02 | 79 | 1010.8 |
| 20260508205703 | 52 | 269 | 3.5 | 7.0 | 0.00 | 0.02 | 0.02 | 79 | 1011.0 |
| 20260508205159 | 51 | 172 | 3.5 | 3.5 | 0.07 | 0.02 | 0.02 | 79 | 1011.1 |
| 20260508204655 | 51 | 249 | 3.5 | 7.0 | 0.07 | 0.02 | 0.02 | 81 | 1011.2 |
| 20260508204152 | 51 | 145 | 4.3 | 6.1 | 0.00 | 0.01 | 0.01 | 81 | 1011.3 |
| 20260508203648 | 52 | 270 | 6.1 | 9.6 | 0.00 | 0.01 | 0.01 | 77 | 1011.4 |
| 20260508203144 | 54 | 255 | 5.2 | 9.6 | 0.00 | 0.01 | 0.01 | 71 | 1011.4 |
| 20260508202641 | 55 | 270 | 5.2 | 7.8 | 0.00 | 0.01 | 0.01 | 63 | 1011.0 |
| 20260508202138 | 57 | 267 | 7.8 | 13.0 | 0.00 | 0.01 | 0.01 | 56 | 1010.8 |
| 20260508201635 | 58 | 275 | 3.5 | 6.1 | 0.00 | 0.01 | 0.01 | 53 | 1010.5 |
| 20260508201131 | 58 | 192 | 1.7 | 3.5 | 0.00 | 0.01 | 0.01 | 53 | 1010.5 |
| 20260508200628 | 57 | 228 | 3.5 | 6.1 | 0.00 | 0.01 | 0.01 | 56 | 1010.7 |
| 20260508200124 | 57 | 105 | 0.0 | 0.0 | 0.00 | 0.01 | 0.01 | 65 | 1010.7 |
| 20260508195621 | 58 | 130 | 0.0 | 0.0 | 0.00 | 0.01 | 0.01 | 60 | 1010.8 |
| 20260508195117 | 57 | 117 | 0.0 | 0.0 | 0.00 | 0.01 | 0.01 | 62 | 1010.7 |
| 20260508194614 | 57 | 175 | 0.9 | 1.7 | 0.00 | 0.01 | 0.01 | 64 | 1010.8 |
| 20260508194111 | 57 | 103 | 0.0 | 0.9 | 0.00 | 0.01 | 0.01 | 61 | 1010.6 |
| 20260508193608 | 57 | 123 | 0.0 | 0.9 | 0.00 | 0.01 | 0.01 | 60 | 1010.8 |
| 20260508193105 | 57 | 120 | 0.0 | 0.0 | 0.07 | 0.01 | 0.01 | 62 | 1010.8 |
| 20260508192601 | 57 | 113 | 0.0 | 0.0 | 0.07 | 0.01 | 0.01 | 62 | 1010.8 |
| 20260508192059 | 56 | 121 | 0.0 | 0.9 | 0.00 | 0.00 | 0.00 | 60 | 1011.0 |
| 20260508191555 | 56 | 119 | 0.0 | 0.0 | 0.00 | 0.00 | 0.00 | 65 | 1010.6 |
| 20260508191052 | 56 | 121 | 0.0 | 0.9 | 0.00 | 0.00 | 0.00 | 61 | 1010.8 |
| 20260508190549 | 57 | 113 | 0.9 | 0.9 | 0.00 | 0.00 | 0.00 | 63 | 1010.8 |
| 20260508190045 | 57 | 61 | 1.7 | 3.5 | 0.00 | 0.00 | 0.00 | 66 | 1010.7 |
| 20260508185543 | 57 | 119 | 0.0 | 1.7 | 0.00 | 0.00 | 0.00 | 63 | 1010.8 |
| 20260508185040 | 57 | 114 | 0.0 | 0.9 | 0.00 | 0.00 | 0.00 | 64 | 1010.8 |
| 20260508184537 | 57 | 122 | 0.9 | 2.6 | 0.00 | 0.00 | 0.00 | 67 | 1010.9 |
| 20260508184034 | 55 | 105 | 0.9 | 2.6 | 0.00 | 0.00 | 0.00 | 69 | 1010.9 |
| 20260508183531 | 57 | 77 | 0.0 | 1.7 | 0.00 | 0.00 | 0.00 | 63 | 1011.2 |
| 20260508183027 | 58 | 161 | 0.0 | 0.9 | 0.00 | 0.00 | 0.00 | 54 | 1010.9 |
| 20260508182523 | 58 | 211 | 1.7 | 3.5 | 0.00 | 0.00 | 0.00 | 50 | 1011.0 |
| 20260508182020 | 59 | 317 | 3.5 | 3.5 | 0.00 | 0.00 | 0.00 | 51 | 1011.0 |
| 20260508181515 | 59 | 249 | 3.5 | 5.2 | 0.00 | 0.00 | 0.00 | 49 | 1010.9 |
| 20260508181013 | 60 | 272 | 3.5 | 7.0 | 0.00 | 0.00 | 0.00 | 48 | 1011.0 |
| 20260508180509 | 59 | 233 | 2.6 | 5.2 | 0.00 | 0.00 | 0.00 | 50 | 1011.1 |
| 20260508180006 | 59 | 276 | 3.5 | 6.1 | 0.00 | 0.00 | 0.00 | 49 | 1011.2 |
| 20260508175502 | 60 | 313 | 5.2 | 7.8 | 0.00 | 0.00 | 0.00 | 48 | 1011.1 |
| 20260508175000 | 60 | 234 | 3.5 | 5.2 | 0.00 | 0.00 | 0.00 | 53 | 1011.4 |
| 20260508174457 | 59 | 230 | 3.5 | 7.0 | 0.00 | 0.00 | 0.00 | 52 | 1011.4 |
| 20260508173954 | 59 | 264 | 3.5 | 5.2 | 0.00 | 0.00 | 0.00 | 50 | 1011.5 |
| 20260508173451 | 59 | 91 | 0.9 | 2.6 | 0.00 | 0.00 | 0.00 | 63 | 1011.7 |
| 20260508172947 | 57 | 242 | 2.6 | 3.5 | 0.00 | 0.00 | 0.00 | 58 | 1011.5 |
| 20260508172444 | 58 | 230 | 3.5 | 7.8 | 0.00 | 0.00 | 0.00 | 57 | 1011.6 |
| 20260508171941 | 57 | 207 | 2.6 | 6.1 | 0.00 | 0.00 | 0.00 | 58 | 1011.8 |
| 20260508171437 | 57 | 242 | 3.5 | 5.2 | 0.00 | 0.00 | 0.00 | 55 | 1011.8 |
| 20260508170934 | 57 | 206 | 6.1 | 7.8 | 0.00 | 0.00 | 0.00 | 52 | 1011.8 |
| 20260508170431 | 57 | 262 | 1.7 | 6.1 | 0.00 | 0.00 | 0.00 | 53 | 1011.8 |
| 20260508165928 | 57 | 213 | 2.6 | 3.5 | 0.00 | 0.00 | 0.00 | 52 | 1011.6 |
| 20260508165426 | 57 | 253 | 3.5 | 6.1 | 0.00 | 0.00 | 0.00 | 50 | 1011.8 |
| 20260508164921 | 58 | 246 | 4.3 | 7.8 | 0.00 | 0.00 | 0.00 | 49 | 1011.7 |
| 20260508164419 | 57 | 265 | 4.3 | 6.1 | 0.00 | 0.00 | 0.00 | 49 | 1011.6 |
| 20260508163916 | 56 | 279 | 6.1 | 8.7 | 0.00 | 0.00 | 0.00 | 50 | 1011.8 |
| 20260508163414 | 57 | 232 | 4.3 | 12.2 | 0.00 | 0.00 | 0.00 | 50 | 1011.6 |
| 20260508162909 | 57 | 246 | 4.3 | 8.7 | 0.00 | 0.00 | 0.00 | 50 | 1011.7 |
| 20260508162407 | 58 | 287 | 4.3 | 7.8 | 0.00 | 0.00 | 0.00 | 49 | 1011.7 |
| 20260508161903 | 57 | 256 | 4.3 | 8.7 | 0.00 | 0.00 | 0.00 | 50 | 1011.8 |
| 20260508161401 | 57 | 222 | 0.9 | 7.0 | 0.00 | 0.00 | 0.00 | 51 | 1011.8 |
| 20260508160858 | 57 | 93 | 1.7 | 7.0 | 0.00 | 0.00 | 0.00 | 51 | 1011.9 |
| 20260508160357 | 57 | 279 | 7.0 | 9.6 | 0.00 | 0.00 | 0.00 | 50 | 1011.9 |
| 20260508155852 | 57 | 240 | 3.5 | 12.2 | 0.00 | 0.00 | 0.00 | 53 | 1011.9 |
| 20260508155350 | 57 | 292 | 4.3 | 6.1 | 0.00 | 0.00 | 0.00 | 52 | 1012.1 |
| 20260508154846 | 58 | 235 | 6.1 | 8.7 | 0.00 | 0.00 | 0.00 | 51 | 1011.8 |
| 20260508154344 | 58 | 313 | 5.2 | 7.0 | 0.00 | 0.00 | 0.00 | 51 | 1011.8 |
| 20260508153840 | 58 | 251 | 5.2 | 13.9 | 0.00 | 0.00 | 0.00 | 50 | 1011.9 |
| 20260508153338 | 57 | 263 | 5.2 | 7.8 | 0.00 | 0.00 | 0.00 | 52 | 1011.8 |
| 20260508152833 | 58 | 290 | 5.2 | 11.3 | 0.00 | 0.00 | 0.00 | 52 | 1012.0 |
| 20260508152330 | 58 | 201 | 6.1 | 8.7 | 0.00 | 0.00 | 0.00 | 52 | 1011.8 |
| 20260508151826 | 57 | 292 | 3.5 | 7.8 | 0.00 | 0.00 | 0.00 | 53 | 1011.8 |
| 20260508151324 | 57 | 214 | 5.2 | 11.3 | 0.00 | 0.00 | 0.00 | 52 | 1011.6 |
| 20260508150820 | 56 | 228 | 7.8 | 13.0 | 0.00 | 0.00 | 0.00 | 51 | 1011.7 |
| 20260508150317 | 57 | 290 | 6.1 | 11.3 | 0.00 | 0.00 | 0.00 | 53 | 1011.7 |
| 20260508145812 | 56 | 259 | 7.0 | 13.9 | 0.00 | 0.00 | 0.00 | 52 | 1011.4 |
| 20260508145309 | 57 | 230 | 10.4 | 13.9 | 0.00 | 0.00 | 0.00 | 50 | 1011.5 |
| 20260508144806 | 56 | 218 | 5.2 | 7.8 | 0.00 | 0.00 | 0.00 | 51 | 1011.4 |
| 20260508144303 | 56 | 264 | 5.2 | 8.7 | 0.00 | 0.00 | 0.00 | 51 | 1011.6 |
| 20260508143801 | 56 | 226 | 4.3 | 7.0 | 0.00 | 0.00 | 0.00 | 53 | 1011.7 |
| 20260508143258 | 56 | 295 | 7.0 | 7.8 | 0.00 | 0.00 | 0.00 | 52 | 1011.7 |
| 20260508142754 | 55 | 264 | 3.5 | 7.0 | 0.00 | 0.00 | 0.00 | 54 | 1012.0 |
| 20260508142251 | 54 | 244 | 4.3 | 13.0 | 0.00 | 0.00 | 0.00 | 53 | 1012.1 |
| 20260508141747 | 55 | 290 | 6.1 | 11.3 | 0.00 | 0.00 | 0.00 | 53 | 1011.9 |
| 20260508141245 | 54 | 257 | 3.5 | 7.8 | 0.00 | 0.00 | 0.00 | 55 | 1011.9 |
| 20260508140742 | 53 | 262 | 4.3 | 6.1 | 0.00 | 0.00 | 0.00 | 54 | 1012.2 |
| 20260508140239 | 53 | 301 | 3.5 | 8.7 | 0.00 | 0.00 | 0.00 | 54 | 1012.1 |
| 20260508135735 | 53 | 263 | 4.3 | 5.2 | 0.00 | 0.00 | 0.00 | 56 | 1012.2 |
| 20260508135232 | 53 | 87 | 1.7 | 6.1 | 0.00 | 0.00 | 0.00 | 57 | 1012.1 |
| 20260508134727 | 52 | 146 | 2.6 | 7.8 | 0.00 | 0.00 | 0.00 | 57 | 1012.2 |
| 20260508134225 | 52 | 235 | 2.6 | 3.5 | 0.00 | 0.00 | 0.00 | 58 | 1012.1 |
| 20260508133721 | 52 | 244 | 2.6 | 3.5 | 0.00 | 0.00 | 0.00 | 57 | 1012.2 |
| 20260508133219 | 51 | 191 | 2.6 | 2.6 | 0.00 | 0.00 | 0.00 | 58 | 1012.2 |
| 20260508132716 | 51 | 254 | 4.3 | 6.1 | 0.00 | 0.00 | 0.00 | 60 | 1012.5 |
| 20260508132214 | 51 | 133 | 0.9 | 2.6 | 0.00 | 0.00 | 0.00 | 59 | 1012.5 |
| 20260508131709 | 50 | 288 | 2.6 | 5.2 | 0.00 | 0.00 | 0.00 | 60 | 1012.6 |
| 20260508131206 | 50 | 224 | 3.5 | 3.5 | 0.00 | 0.00 | 0.00 | 58 | 1012.6 |
| 20260508130702 | 49 | 187 | 1.7 | 3.5 | 0.00 | 0.00 | 0.00 | 61 | 1012.8 |
| 20260508130159 | 50 | 269 | 1.7 | 6.1 | 0.00 | 0.00 | 0.00 | 60 | 1012.6 |